Four Oaks, NC (27524)

9:39 PM EDT on September 03, 2015 (GMT -0400)
Moore Farm | | Change Station
CLOSE
Current Station
Personal Weather Station
Location: Four Oaks, NC
Elevation: 141 ft
Nearby Weather Stations

Elev 141 ft 35.41 °N, 78.39 °W | Updated 3 minutes ago

Partly Cloudy
Partly Cloudy
74.8 °F
Feels Like 74 °F
N
0.0
Wind Variable Wind from NNW
Gusts 0.0 mph

Today
High -- | Low -- °F
--% Chance of Precip.
Yesterday
High -- | Low -- °F
Precip. -- in
6:47 AM 7:38 PM
Waning Gibbous, 65% visible
Pressure 29.90 in
Visibility 7.0 miles
Clouds Clear
Heat Index 74 °F
Dew Point 71 °F
Humidity 89%
Rainfall 0.25 in
Snow Depth Not available.
UV 0 out of 12
Pollen 8.40 out of 12
Air Quality Not available.
Flu Activity Not available.
METAR KJNX 040135Z AUTO 00000KT 7SM CLR 23/23 A2990 RMK AO2
Pressure 29.90 in
Visibility 7.0 miles
Clouds Clear
Heat Index 74 °F
Dew Point 71 °F
Humidity 89%
Rainfall 0.25 in
Snow Depth Not available.
UV 0 out of 12
Pollen 8.40 out of 12
Air Quality Not available.
Flu Activity Not available.
METAR KJNX 040135Z AUTO 00000KT 7SM CLR 23/23 A2990 RMK AO2

10-Day Weather Forecast

×

Almanac

Astronomy

Sep. 03, 2015 Rise Set
Actual Time
Civil Twilight
Nautical Twilight
Astronomical Twilight
Moon
Length of Visible Light
Length of Day
Tomorrow will be .
, % of the Moon is Illuminated

Today's Extremes

State Highs State Lows

Community

WunderPhotos

Upload Photos

1,852,086 photos uploaded!

WunderBlogs® & News

Nearby

Air Quality

  Air Quality AQ Index Pollutant
Not available.

Snow Depth

Station Depth Elevation

Earthquake Activity

City Distance Mag. Time & Date
Minimum magnitude displayed is 2.5.

Coastal Water Temperatures

Place Temperature

Stations

Nearby Weather Stations

Station Location Temp. Windchill Dew Point Humidity Wind Precip. Elev Updated Type